sensor_id;sensor_type;location;lat;lon;timestamp;P1;durP1;ratioP1;P2;durP2;ratioP2
24743;SDS011;12844;52.110;5.548;2023-05-02T00:00:07;4.95;;;4.07;;
24743;SDS011;12844;52.110;5.548;2023-05-02T00:02:33;5.07;;;3.97;;
24743;SDS011;12844;52.110;5.548;2023-05-02T00:04:58;6.13;;;4.65;;
24743;SDS011;12844;52.110;5.548;2023-05-02T00:07:24;4.78;;;3.92;;
24743;SDS011;12844;52.110;5.548;2023-05-02T00:09:50;5.78;;;4.47;;
24743;SDS011;12844;52.110;5.548;2023-05-02T00:12:16;4.90;;;3.83;;
24743;SDS011;12844;52.110;5.548;2023-05-02T00:14:42;4.43;;;3.88;;
24743;SDS011;12844;52.110;5.548;2023-05-02T00:17:07;4.57;;;4.10;;
24743;SDS011;12844;52.110;5.548;2023-05-02T00:19:37;4.68;;;4.03;;
24743;SDS011;12844;52.110;5.548;2023-05-02T00:22:03;5.30;;;4.10;;
24743;SDS011;12844;52.110;5.548;2023-05-02T00:24:29;4.90;;;4.07;;
24743;SDS011;12844;52.110;5.548;2023-05-02T00:26:55;5.47;;;3.95;;
24743;SDS011;12844;52.110;5.548;2023-05-02T00:29:20;4.82;;;3.95;;
24743;SDS011;12844;52.110;5.548;2023-05-02T00:31:46;5.35;;;4.25;;
24743;SDS011;12844;52.110;5.548;2023-05-02T00:34:11;5.28;;;4.25;;
24743;SDS011;12844;52.110;5.548;2023-05-02T00:36:37;4.80;;;3.88;;
24743;SDS011;12844;52.110;5.548;2023-05-02T00:39:02;4.80;;;4.00;;
24743;SDS011;12844;52.110;5.548;2023-05-02T00:41:28;5.15;;;3.97;;
24743;SDS011;12844;52.110;5.548;2023-05-02T00:43:54;5.10;;;3.90;;
24743;SDS011;12844;52.110;5.548;2023-05-02T00:46:19;5.18;;;4.18;;
24743;SDS011;12844;52.110;5.548;2023-05-02T00:48:45;4.32;;;3.85;;
24743;SDS011;12844;52.110;5.548;2023-05-02T00:51:11;5.70;;;4.22;;
24743;SDS011;12844;52.110;5.548;2023-05-02T00:53:37;4.97;;;4.03;;
24743;SDS011;12844;52.110;5.548;2023-05-02T00:56:04;5.20;;;4.20;;
24743;SDS011;12844;52.110;5.548;2023-05-02T00:58:29;5.45;;;4.18;;
24743;SDS011;12844;52.110;5.548;2023-05-02T01:09:12;5.35;;;4.10;;
24743;SDS011;12844;52.110;5.548;2023-05-02T01:11:52;4.88;;;4.10;;
24743;SDS011;12844;52.110;5.548;2023-05-02T01:14:27;4.22;;;3.78;;
24743;SDS011;12844;52.110;5.548;2023-05-02T01:17:14;4.57;;;3.70;;
24743;SDS011;12844;52.110;5.548;2023-05-02T01:19:44;5.18;;;4.03;;
24743;SDS011;12844;52.110;5.548;2023-05-02T01:22:15;5.00;;;4.07;;
24743;SDS011;12844;52.110;5.548;2023-05-02T01:24:53;4.65;;;3.63;;
24743;SDS011;12844;52.110;5.548;2023-05-02T01:30:22;4.53;;;3.83;;
24743;SDS011;12844;52.110;5.548;2023-05-02T01:32:50;4.57;;;3.58;;
24743;SDS011;12844;52.110;5.548;2023-05-02T01:35:17;4.50;;;3.83;;
24743;SDS011;12844;52.110;5.548;2023-05-02T01:37:45;4.43;;;3.67;;
24743;SDS011;12844;52.110;5.548;2023-05-02T01:40:13;4.63;;;3.70;;
24743;SDS011;12844;52.110;5.548;2023-05-02T01:42:41;4.07;;;3.53;;
24743;SDS011;12844;52.110;5.548;2023-05-02T01:45:08;5.40;;;3.58;;
24743;SDS011;12844;52.110;5.548;2023-05-02T01:47:36;3.80;;;3.28;;
24743;SDS011;12844;52.110;5.548;2023-05-02T01:50:04;4.53;;;3.67;;
24743;SDS011;12844;52.110;5.548;2023-05-02T01:52:33;4.57;;;3.72;;
24743;SDS011;12844;52.110;5.548;2023-05-02T01:54:59;5.03;;;3.22;;
24743;SDS011;12844;52.110;5.548;2023-05-02T01:57:25;4.35;;;3.20;;
24743;SDS011;12844;52.110;5.548;2023-05-02T01:59:51;4.40;;;3.60;;
24743;SDS011;12844;52.110;5.548;2023-05-02T02:02:20;4.18;;;3.28;;
24743;SDS011;12844;52.110;5.548;2023-05-02T02:04:50;3.88;;;3.17;;
24743;SDS011;12844;52.110;5.548;2023-05-02T02:07:19;3.47;;;3.08;;
24743;SDS011;12844;52.110;5.548;2023-05-02T02:09:44;3.72;;;3.30;;
24743;SDS011;12844;52.110;5.548;2023-05-02T02:12:22;4.50;;;3.10;;
24743;SDS011;12844;52.110;5.548;2023-05-02T02:15:02;5.03;;;3.50;;
24743;SDS011;12844;52.110;5.548;2023-05-02T02:17:45;3.60;;;2.90;;
24743;SDS011;12844;52.110;5.548;2023-05-02T02:20:26;3.60;;;2.97;;
24743;SDS011;12844;52.110;5.548;2023-05-02T02:22:53;3.40;;;2.97;;
24743;SDS011;12844;52.110;5.548;2023-05-02T02:25:21;4.22;;;3.05;;
24743;SDS011;12844;52.110;5.548;2023-05-02T02:27:46;4.68;;;3.38;;
24743;SDS011;12844;52.110;5.548;2023-05-02T02:30:13;3.58;;;2.75;;
24743;SDS011;12844;52.110;5.548;2023-05-02T02:32:40;3.30;;;3.00;;
24743;SDS011;12844;52.110;5.548;2023-05-02T02:35:05;3.20;;;2.65;;
24743;SDS011;12844;52.110;5.548;2023-05-02T02:37:32;3.67;;;2.72;;
24743;SDS011;12844;52.110;5.548;2023-05-02T02:40:22;2.97;;;2.65;;
24743;SDS011;12844;52.110;5.548;2023-05-02T02:43:07;3.92;;;3.10;;
24743;SDS011;12844;52.110;5.548;2023-05-02T02:45:37;3.60;;;2.75;;
24743;SDS011;12844;52.110;5.548;2023-05-02T02:53:49;2.60;;;2.33;;
24743;SDS011;12844;52.110;5.548;2023-05-02T02:59:07;3.30;;;2.50;;
24743;SDS011;12844;52.110;5.548;2023-05-02T03:01:42;3.53;;;2.53;;
24743;SDS011;12844;52.110;5.548;2023-05-02T03:04:12;2.63;;;2.43;;
24743;SDS011;12844;52.110;5.548;2023-05-02T03:06:40;3.30;;;2.50;;
24743;SDS011;12844;52.110;5.548;2023-05-02T03:09:10;3.55;;;2.60;;
24743;SDS011;12844;52.110;5.548;2023-05-02T03:11:41;2.75;;;2.45;;
24743;SDS011;12844;52.110;5.548;2023-05-02T03:14:06;3.00;;;2.45;;
24743;SDS011;12844;52.110;5.548;2023-05-02T03:18:59;3.25;;;2.40;;
24743;SDS011;12844;52.110;5.548;2023-05-02T03:21:25;3.55;;;2.50;;
24743;SDS011;12844;52.110;5.548;2023-05-02T03:23:50;3.15;;;2.40;;
24743;SDS011;12844;52.110;5.548;2023-05-02T03:26:16;3.05;;;2.40;;
24743;SDS011;12844;52.110;5.548;2023-05-02T03:28:42;2.95;;;2.45;;
24743;SDS011;12844;52.110;5.548;2023-05-02T03:31:10;2.40;;;2.10;;
24743;SDS011;12844;52.110;5.548;2023-05-02T03:33:36;2.78;;;2.05;;
24743;SDS011;12844;52.110;5.548;2023-05-02T03:36:02;2.97;;;2.30;;
24743;SDS011;12844;52.110;5.548;2023-05-02T03:38:28;2.60;;;1.80;;
24743;SDS011;12844;52.110;5.548;2023-05-02T03:40:55;2.70;;;2.20;;
24743;SDS011;12844;52.110;5.548;2023-05-02T03:43:22;3.20;;;1.98;;
24743;SDS011;12844;52.110;5.548;2023-05-02T03:45:47;2.88;;;2.28;;
24743;SDS011;12844;52.110;5.548;2023-05-02T03:48:13;2.35;;;2.00;;
24743;SDS011;12844;52.110;5.548;2023-05-02T03:50:38;3.00;;;2.03;;
24743;SDS011;12844;52.110;5.548;2023-05-02T03:53:04;2.45;;;1.83;;
24743;SDS011;12844;52.110;5.548;2023-05-02T03:55:29;2.30;;;1.85;;
24743;SDS011;12844;52.110;5.548;2023-05-02T03:57:56;2.85;;;1.83;;
24743;SDS011;12844;52.110;5.548;2023-05-02T04:00:21;2.70;;;1.90;;
24743;SDS011;12844;52.110;5.548;2023-05-02T04:02:47;1.90;;;1.60;;
24743;SDS011;12844;52.110;5.548;2023-05-02T04:05:12;2.47;;;1.88;;
24743;SDS011;12844;52.110;5.548;2023-05-02T04:07:38;2.50;;;2.03;;
24743;SDS011;12844;52.110;5.548;2023-05-02T04:10:04;2.60;;;1.80;;
24743;SDS011;12844;52.110;5.548;2023-05-02T04:12:30;3.65;;;2.08;;
24743;SDS011;12844;52.110;5.548;2023-05-02T04:14:56;2.45;;;1.88;;
24743;SDS011;12844;52.110;5.548;2023-05-02T04:17:21;2.40;;;1.90;;
24743;SDS011;12844;52.110;5.548;2023-05-02T04:19:47;3.17;;;1.80;;
24743;SDS011;12844;52.110;5.548;2023-05-02T04:22:13;2.25;;;1.83;;
24743;SDS011;12844;52.110;5.548;2023-05-02T04:24:38;2.83;;;1.70;;
24743;SDS011;12844;52.110;5.548;2023-05-02T04:27:04;2.45;;;1.80;;
24743;SDS011;12844;52.110;5.548;2023-05-02T04:29:29;3.30;;;1.90;;
24743;SDS011;12844;52.110;5.548;2023-05-02T04:31:55;3.17;;;1.98;;
24743;SDS011;12844;52.110;5.548;2023-05-02T04:34:20;2.33;;;1.85;;
24743;SDS011;12844;52.110;5.548;2023-05-02T04:36:46;2.40;;;1.60;;
24743;SDS011;12844;52.110;5.548;2023-05-02T04:39:11;2.38;;;1.80;;
24743;SDS011;12844;52.110;5.548;2023-05-02T04:41:37;2.40;;;1.65;;
24743;SDS011;12844;52.110;5.548;2023-05-02T04:44:03;2.00;;;1.63;;
24743;SDS011;12844;52.110;5.548;2023-05-02T04:46:28;2.38;;;1.65;;
24743;SDS011;12844;52.110;5.548;2023-05-02T04:48:54;1.85;;;1.67;;
24743;SDS011;12844;52.110;5.548;2023-05-02T04:51:19;2.85;;;1.80;;
24743;SDS011;12844;52.110;5.548;2023-05-02T04:53:45;1.95;;;1.67;;
24743;SDS011;12844;52.110;5.548;2023-05-02T04:56:11;2.03;;;1.50;;
24743;SDS011;12844;52.110;5.548;2023-05-02T04:58:37;2.22;;;1.80;;
24743;SDS011;12844;52.110;5.548;2023-05-02T05:01:02;2.22;;;1.60;;
24743;SDS011;12844;52.110;5.548;2023-05-02T05:03:28;2.00;;;1.42;;
24743;SDS011;12844;52.110;5.548;2023-05-02T05:05:54;1.80;;;1.40;;
24743;SDS011;12844;52.110;5.548;2023-05-02T05:08:21;2.03;;;1.50;;
24743;SDS011;12844;52.110;5.548;2023-05-02T05:10:46;2.67;;;1.50;;
24743;SDS011;12844;52.110;5.548;2023-05-02T05:13:12;1.90;;;1.42;;
24743;SDS011;12844;52.110;5.548;2023-05-02T05:15:38;2.33;;;1.90;;
24743;SDS011;12844;52.110;5.548;2023-05-02T05:18:04;2.30;;;1.35;;
24743;SDS011;12844;52.110;5.548;2023-05-02T05:20:30;2.35;;;1.73;;
24743;SDS011;12844;52.110;5.548;2023-05-02T05:22:56;1.90;;;1.70;;
24743;SDS011;12844;52.110;5.548;2023-05-02T05:25:21;2.25;;;1.70;;
24743;SDS011;12844;52.110;5.548;2023-05-02T05:27:47;2.05;;;1.70;;
24743;SDS011;12844;52.110;5.548;2023-05-02T05:30:13;2.17;;;1.70;;
24743;SDS011;12844;52.110;5.548;2023-05-02T05:32:38;2.83;;;2.00;;
24743;SDS011;12844;52.110;5.548;2023-05-02T05:35:04;1.98;;;1.50;;
24743;SDS011;12844;52.110;5.548;2023-05-02T05:37:29;2.28;;;1.50;;
24743;SDS011;12844;52.110;5.548;2023-05-02T05:39:55;2.13;;;1.65;;
24743;SDS011;12844;52.110;5.548;2023-05-02T05:42:20;2.13;;;1.50;;
24743;SDS011;12844;52.110;5.548;2023-05-02T05:44:46;2.10;;;1.60;;
24743;SDS011;12844;52.110;5.548;2023-05-02T05:47:11;2.63;;;1.52;;
24743;SDS011;12844;52.110;5.548;2023-05-02T05:49:42;2.50;;;1.75;;
24743;SDS011;12844;52.110;5.548;2023-05-02T05:52:08;2.78;;;1.80;;
24743;SDS011;12844;52.110;5.548;2023-05-02T05:54:33;2.75;;;1.60;;
24743;SDS011;12844;52.110;5.548;2023-05-02T05:56:59;1.83;;;1.52;;
24743;SDS011;12844;52.110;5.548;2023-05-02T05:59:25;3.65;;;1.65;;
24743;SDS011;12844;52.110;5.548;2023-05-02T06:01:51;3.35;;;1.88;;
24743;SDS011;12844;52.110;5.548;2023-05-02T06:04:18;2.30;;;1.67;;
24743;SDS011;12844;52.110;5.548;2023-05-02T06:06:43;2.67;;;1.67;;
24743;SDS011;12844;52.110;5.548;2023-05-02T06:09:09;2.85;;;1.67;;
24743;SDS011;12844;52.110;5.548;2023-05-02T06:11:36;1.67;;;1.45;;
24743;SDS011;12844;52.110;5.548;2023-05-02T06:14:02;2.75;;;1.63;;
24743;SDS011;12844;52.110;5.548;2023-05-02T06:16:27;2.10;;;1.60;;
24743;SDS011;12844;52.110;5.548;2023-05-02T06:18:53;2.45;;;1.60;;
24743;SDS011;12844;52.110;5.548;2023-05-02T06:21:18;2.10;;;1.48;;
24743;SDS011;12844;52.110;5.548;2023-05-02T06:23:44;2.60;;;1.75;;
24743;SDS011;12844;52.110;5.548;2023-05-02T06:26:10;2.35;;;1.67;;
24743;SDS011;12844;52.110;5.548;2023-05-02T06:28:35;2.60;;;1.60;;
24743;SDS011;12844;52.110;5.548;2023-05-02T06:31:02;2.05;;;1.65;;
24743;SDS011;12844;52.110;5.548;2023-05-02T06:33:29;2.47;;;1.70;;
24743;SDS011;12844;52.110;5.548;2023-05-02T06:35:56;2.50;;;1.60;;
24743;SDS011;12844;52.110;5.548;2023-05-02T06:38:22;3.17;;;1.67;;
24743;SDS011;12844;52.110;5.548;2023-05-02T06:40:48;3.35;;;1.63;;
24743;SDS011;12844;52.110;5.548;2023-05-02T06:43:14;3.13;;;1.60;;
24743;SDS011;12844;52.110;5.548;2023-05-02T06:45:40;1.73;;;1.55;;
24743;SDS011;12844;52.110;5.548;2023-05-02T06:48:06;1.52;;;1.27;;
24743;SDS011;12844;52.110;5.548;2023-05-02T06:50:32;2.20;;;1.52;;
24743;SDS011;12844;52.110;5.548;2023-05-02T06:52:57;2.65;;;1.60;;
24743;SDS011;12844;52.110;5.548;2023-05-02T06:55:23;3.17;;;1.67;;
24743;SDS011;12844;52.110;5.548;2023-05-02T06:57:49;3.28;;;1.48;;
24743;SDS011;12844;52.110;5.548;2023-05-02T07:00:15;2.47;;;1.50;;
24743;SDS011;12844;52.110;5.548;2023-05-02T07:02:41;2.80;;;1.50;;
24743;SDS011;12844;52.110;5.548;2023-05-02T07:05:08;2.65;;;1.70;;
24743;SDS011;12844;52.110;5.548;2023-05-02T07:07:33;1.92;;;1.50;;
24743;SDS011;12844;52.110;5.548;2023-05-02T07:09:59;2.50;;;1.60;;
24743;SDS011;12844;52.110;5.548;2023-05-02T07:12:25;2.10;;;1.65;;
24743;SDS011;12844;52.110;5.548;2023-05-02T07:14:50;2.83;;;1.50;;
24743;SDS011;12844;52.110;5.548;2023-05-02T07:17:16;3.20;;;1.65;;
24743;SDS011;12844;52.110;5.548;2023-05-02T07:19:42;3.00;;;1.60;;
24743;SDS011;12844;52.110;5.548;2023-05-02T07:22:08;2.33;;;1.60;;
24743;SDS011;12844;52.110;5.548;2023-05-02T07:24:33;2.38;;;1.70;;
24743;SDS011;12844;52.110;5.548;2023-05-02T07:26:59;2.33;;;1.40;;
24743;SDS011;12844;52.110;5.548;2023-05-02T07:29:24;2.35;;;1.50;;
24743;SDS011;12844;52.110;5.548;2023-05-02T07:31:50;2.63;;;1.40;;
24743;SDS011;12844;52.110;5.548;2023-05-02T07:34:16;2.53;;;1.40;;
24743;SDS011;12844;52.110;5.548;2023-05-02T07:36:41;2.33;;;1.52;;
24743;SDS011;12844;52.110;5.548;2023-05-02T07:39:07;2.33;;;1.48;;
24743;SDS011;12844;52.110;5.548;2023-05-02T07:41:32;1.95;;;1.30;;
24743;SDS011;12844;52.110;5.548;2023-05-02T07:43:58;2.30;;;1.55;;
24743;SDS011;12844;52.110;5.548;2023-05-02T07:46:23;2.10;;;1.55;;
24743;SDS011;12844;52.110;5.548;2023-05-02T07:48:49;2.25;;;1.40;;
24743;SDS011;12844;52.110;5.548;2023-05-02T07:51:15;2.25;;;1.60;;
24743;SDS011;12844;52.110;5.548;2023-05-02T07:53:40;3.08;;;1.70;;
24743;SDS011;12844;52.110;5.548;2023-05-02T07:56:06;1.55;;;1.23;;
24743;SDS011;12844;52.110;5.548;2023-05-02T07:58:35;3.38;;;1.40;;
24743;SDS011;12844;52.110;5.548;2023-05-02T08:01:01;2.20;;;1.40;;
24743;SDS011;12844;52.110;5.548;2023-05-02T08:03:27;2.38;;;1.70;;
24743;SDS011;12844;52.110;5.548;2023-05-02T08:05:53;2.35;;;1.70;;
24743;SDS011;12844;52.110;5.548;2023-05-02T08:08:19;2.63;;;1.25;;
24743;SDS011;12844;52.110;5.548;2023-05-02T08:10:44;2.80;;;1.60;;
24743;SDS011;12844;52.110;5.548;2023-05-02T08:13:10;2.47;;;1.60;;
24743;SDS011;12844;52.110;5.548;2023-05-02T08:15:36;2.88;;;1.60;;
24743;SDS011;12844;52.110;5.548;2023-05-02T08:18:02;2.17;;;1.70;;
24743;SDS011;12844;52.110;5.548;2023-05-02T08:20:27;2.20;;;1.40;;
24743;SDS011;12844;52.110;5.548;2023-05-02T08:22:53;2.85;;;1.52;;
24743;SDS011;12844;52.110;5.548;2023-05-02T08:25:19;2.85;;;1.52;;
24743;SDS011;12844;52.110;5.548;2023-05-02T08:27:44;1.95;;;1.40;;
24743;SDS011;12844;52.110;5.548;2023-05-02T08:30:10;1.63;;;1.30;;
24743;SDS011;12844;52.110;5.548;2023-05-02T08:32:36;2.63;;;1.50;;
24743;SDS011;12844;52.110;5.548;2023-05-02T08:35:02;2.28;;;1.38;;
24743;SDS011;12844;52.110;5.548;2023-05-02T08:37:27;2.35;;;1.65;;
24743;SDS011;12844;52.110;5.548;2023-05-02T08:39:53;2.92;;;1.50;;
24743;SDS011;12844;52.110;5.548;2023-05-02T08:42:18;1.80;;;1.27;;
24743;SDS011;12844;52.110;5.548;2023-05-02T08:44:45;2.58;;;1.35;;
24743;SDS011;12844;52.110;5.548;2023-05-02T08:47:12;1.70;;;1.38;;
24743;SDS011;12844;52.110;5.548;2023-05-02T08:49:39;2.38;;;1.30;;
24743;SDS011;12844;52.110;5.548;2023-05-02T08:52:06;2.30;;;1.40;;
24743;SDS011;12844;52.110;5.548;2023-05-02T08:54:33;2.95;;;1.35;;
24743;SDS011;12844;52.110;5.548;2023-05-02T08:57:02;2.45;;;1.50;;
24743;SDS011;12844;52.110;5.548;2023-05-02T08:59:29;2.10;;;1.38;;
24743;SDS011;12844;52.110;5.548;2023-05-02T09:01:58;1.92;;;1.40;;
24743;SDS011;12844;52.110;5.548;2023-05-02T09:04:29;1.65;;;1.23;;
24743;SDS011;12844;52.110;5.548;2023-05-02T09:06:59;2.75;;;1.40;;
24743;SDS011;12844;52.110;5.548;2023-05-02T09:09:25;3.17;;;1.40;;
24743;SDS011;12844;52.110;5.548;2023-05-02T09:11:51;2.38;;;1.58;;
24743;SDS011;12844;52.110;5.548;2023-05-02T09:14:16;2.42;;;1.40;;
24743;SDS011;12844;52.110;5.548;2023-05-02T09:16:42;3.10;;;1.30;;
24743;SDS011;12844;52.110;5.548;2023-05-02T09:19:08;2.15;;;1.35;;
24743;SDS011;12844;52.110;5.548;2023-05-02T09:21:38;1.77;;;1.40;;
24743;SDS011;12844;52.110;5.548;2023-05-02T09:24:20;1.67;;;1.42;;
24743;SDS011;12844;52.110;5.548;2023-05-02T09:26:56;1.77;;;1.38;;
24743;SDS011;12844;52.110;5.548;2023-05-02T09:29:27;2.15;;;1.63;;
24743;SDS011;12844;52.110;5.548;2023-05-02T09:31:59;2.35;;;1.38;;
24743;SDS011;12844;52.110;5.548;2023-05-02T09:34:26;2.28;;;1.60;;
24743;SDS011;12844;52.110;5.548;2023-05-02T09:36:52;1.75;;;1.25;;
24743;SDS011;12844;52.110;5.548;2023-05-02T09:39:23;2.22;;;1.40;;
24743;SDS011;12844;52.110;5.548;2023-05-02T09:41:50;1.75;;;1.08;;
24743;SDS011;12844;52.110;5.548;2023-05-02T09:44:16;2.45;;;1.55;;
24743;SDS011;12844;52.110;5.548;2023-05-02T09:46:47;1.63;;;1.27;;
24743;SDS011;12844;52.110;5.548;2023-05-02T09:49:15;2.20;;;1.40;;
24743;SDS011;12844;52.110;5.548;2023-05-02T09:51:45;2.47;;;1.42;;
24743;SDS011;12844;52.110;5.548;2023-05-02T09:54:11;2.33;;;1.50;;
24743;SDS011;12844;52.110;5.548;2023-05-02T09:56:50;1.85;;;1.50;;
24743;SDS011;12844;52.110;5.548;2023-05-02T09:59:20;1.90;;;1.27;;
24743;SDS011;12844;52.110;5.548;2023-05-02T10:01:52;1.60;;;1.20;;
24743;SDS011;12844;52.110;5.548;2023-05-02T10:04:20;1.60;;;1.30;;
24743;SDS011;12844;52.110;5.548;2023-05-02T10:06:46;1.90;;;1.33;;
24743;SDS011;12844;52.110;5.548;2023-05-02T10:09:15;1.92;;;1.33;;
24743;SDS011;12844;52.110;5.548;2023-05-02T10:11:41;1.75;;;1.38;;
24743;SDS011;12844;52.110;5.548;2023-05-02T10:14:08;2.53;;;1.52;;
24743;SDS011;12844;52.110;5.548;2023-05-02T10:16:39;1.63;;;1.30;;
24743;SDS011;12844;52.110;5.548;2023-05-02T10:19:15;2.28;;;1.20;;
24743;SDS011;12844;52.110;5.548;2023-05-02T10:21:47;1.98;;;1.33;;
24743;SDS011;12844;52.110;5.548;2023-05-02T10:24:14;1.90;;;1.13;;
24743;SDS011;12844;52.110;5.548;2023-05-02T10:26:41;2.78;;;1.42;;
24743;SDS011;12844;52.110;5.548;2023-05-02T10:29:07;3.10;;;1.40;;
24743;SDS011;12844;52.110;5.548;2023-05-02T10:31:33;2.45;;;1.45;;
24743;SDS011;12844;52.110;5.548;2023-05-02T10:33:59;1.73;;;1.20;;
24743;SDS011;12844;52.110;5.548;2023-05-02T10:36:27;1.55;;;1.45;;
24743;SDS011;12844;52.110;5.548;2023-05-02T10:38:53;1.85;;;1.30;;
24743;SDS011;12844;52.110;5.548;2023-05-02T10:41:19;2.30;;;1.20;;
24743;SDS011;12844;52.110;5.548;2023-05-02T10:43:48;2.55;;;1.30;;
24743;SDS011;12844;52.110;5.548;2023-05-02T10:46:33;3.03;;;1.58;;
24743;SDS011;12844;52.110;5.548;2023-05-02T10:49:07;1.45;;;1.20;;
24743;SDS011;12844;52.110;5.548;2023-05-02T10:51:34;2.10;;;1.55;;
24743;SDS011;12844;52.110;5.548;2023-05-02T10:59:38;2.25;;;1.45;;
24743;SDS011;12844;52.110;5.548;2023-05-02T11:02:06;1.80;;;1.42;;
24743;SDS011;12844;52.110;5.548;2023-05-02T11:07:30;1.45;;;1.35;;
24743;SDS011;12844;52.110;5.548;2023-05-02T11:17:58;2.17;;;1.27;;
24743;SDS011;12844;52.110;5.548;2023-05-02T11:20:27;2.15;;;1.50;;
24743;SDS011;12844;52.110;5.548;2023-05-02T11:22:54;2.47;;;1.20;;
24743;SDS011;12844;52.110;5.548;2023-05-02T11:25:34;2.15;;;1.60;;
24743;SDS011;12844;52.110;5.548;2023-05-02T11:28:02;2.33;;;1.27;;
24743;SDS011;12844;52.110;5.548;2023-05-02T11:30:36;2.88;;;1.60;;
24743;SDS011;12844;52.110;5.548;2023-05-02T11:35:33;1.98;;;1.30;;
24743;SDS011;12844;52.110;5.548;2023-05-02T11:38:01;2.22;;;1.55;;
24743;SDS011;12844;52.110;5.548;2023-05-02T11:40:28;2.13;;;1.40;;
24743;SDS011;12844;52.110;5.548;2023-05-02T11:42:54;2.03;;;1.40;;
24743;SDS011;12844;52.110;5.548;2023-05-02T11:45:21;1.73;;;1.30;;
24743;SDS011;12844;52.110;5.548;2023-05-02T11:47:47;2.13;;;1.42;;
24743;SDS011;12844;52.110;5.548;2023-05-02T11:50:15;2.05;;;1.50;;
24743;SDS011;12844;52.110;5.548;2023-05-02T11:52:42;1.95;;;1.35;;
24743;SDS011;12844;52.110;5.548;2023-05-02T11:55:10;1.77;;;1.20;;
24743;SDS011;12844;52.110;5.548;2023-05-02T11:57:36;1.42;;;1.30;;
24743;SDS011;12844;52.110;5.548;2023-05-02T12:00:03;2.33;;;1.35;;
24743;SDS011;12844;52.110;5.548;2023-05-02T12:02:36;2.55;;;1.25;;
24743;SDS011;12844;52.110;5.548;2023-05-02T12:05:03;2.28;;;1.55;;
24743;SDS011;12844;52.110;5.548;2023-05-02T12:07:34;1.85;;;1.42;;
24743;SDS011;12844;52.110;5.548;2023-05-02T12:10:01;2.47;;;1.50;;
24743;SDS011;12844;52.110;5.548;2023-05-02T12:12:26;1.98;;;1.45;;
24743;SDS011;12844;52.110;5.548;2023-05-02T12:14:52;1.90;;;1.63;;
24743;SDS011;12844;52.110;5.548;2023-05-02T12:17:18;2.17;;;1.50;;
24743;SDS011;12844;52.110;5.548;2023-05-02T12:19:45;2.38;;;1.50;;
24743;SDS011;12844;52.110;5.548;2023-05-02T12:22:12;1.40;;;1.30;;
24743;SDS011;12844;52.110;5.548;2023-05-02T12:24:38;2.33;;;1.40;;
24743;SDS011;12844;52.110;5.548;2023-05-02T12:27:08;2.45;;;1.35;;
24743;SDS011;12844;52.110;5.548;2023-05-02T12:29:43;1.70;;;1.40;;
24743;SDS011;12844;52.110;5.548;2023-05-02T12:32:10;1.60;;;1.48;;
24743;SDS011;12844;52.110;5.548;2023-05-02T12:34:37;2.10;;;1.50;;
24743;SDS011;12844;52.110;5.548;2023-05-02T12:37:03;2.60;;;1.52;;
24743;SDS011;12844;52.110;5.548;2023-05-02T12:39:48;2.17;;;1.50;;
24743;SDS011;12844;52.110;5.548;2023-05-02T12:42:14;1.95;;;1.45;;
24743;SDS011;12844;52.110;5.548;2023-05-02T12:44:42;1.60;;;1.30;;
24743;SDS011;12844;52.110;5.548;2023-05-02T12:47:15;2.13;;;1.50;;
24743;SDS011;12844;52.110;5.548;2023-05-02T12:49:50;4.43;;;1.58;;
24743;SDS011;12844;52.110;5.548;2023-05-02T12:52:19;2.85;;;1.65;;
24743;SDS011;12844;52.110;5.548;2023-05-02T12:54:46;2.20;;;1.60;;
24743;SDS011;12844;52.110;5.548;2023-05-02T12:57:24;1.92;;;1.58;;
24743;SDS011;12844;52.110;5.548;2023-05-02T12:59:51;1.50;;;1.20;;
24743;SDS011;12844;52.110;5.548;2023-05-02T13:02:18;1.75;;;1.45;;
24743;SDS011;12844;52.110;5.548;2023-05-02T13:04:43;2.55;;;1.40;;
24743;SDS011;12844;52.110;5.548;2023-05-02T13:07:09;1.98;;;1.40;;
24743;SDS011;12844;52.110;5.548;2023-05-02T13:09:35;7.47;;;1.88;;
24743;SDS011;12844;52.110;5.548;2023-05-02T13:12:01;3.15;;;1.45;;
24743;SDS011;12844;52.110;5.548;2023-05-02T13:14:30;4.03;;;1.38;;
24743;SDS011;12844;52.110;5.548;2023-05-02T13:16:55;3.60;;;1.50;;
24743;SDS011;12844;52.110;5.548;2023-05-02T13:19:21;4.53;;;1.58;;
24743;SDS011;12844;52.110;5.548;2023-05-02T13:21:47;2.67;;;1.50;;
24743;SDS011;12844;52.110;5.548;2023-05-02T13:24:13;4.78;;;1.65;;
24743;SDS011;12844;52.110;5.548;2023-05-02T13:26:39;1.80;;;1.40;;
24743;SDS011;12844;52.110;5.548;2023-05-02T13:29:05;2.80;;;1.60;;
24743;SDS011;12844;52.110;5.548;2023-05-02T13:31:33;3.40;;;1.30;;
24743;SDS011;12844;52.110;5.548;2023-05-02T13:33:59;2.92;;;1.38;;
24743;SDS011;12844;52.110;5.548;2023-05-02T13:36:24;4.32;;;1.63;;
24743;SDS011;12844;52.110;5.548;2023-05-02T13:38:50;4.38;;;1.65;;
24743;SDS011;12844;52.110;5.548;2023-05-02T13:41:16;4.15;;;1.60;;
24743;SDS011;12844;52.110;5.548;2023-05-02T13:43:43;3.42;;;1.45;;
24743;SDS011;12844;52.110;5.548;2023-05-02T13:46:08;4.72;;;1.75;;
24743;SDS011;12844;52.110;5.548;2023-05-02T13:48:34;3.05;;;1.50;;
24743;SDS011;12844;52.110;5.548;2023-05-02T13:51:01;3.47;;;1.65;;
24743;SDS011;12844;52.110;5.548;2023-05-02T13:53:27;2.85;;;1.63;;
24743;SDS011;12844;52.110;5.548;2023-05-02T13:55:52;4.00;;;1.40;;
24743;SDS011;12844;52.110;5.548;2023-05-02T13:58:18;5.97;;;1.50;;
24743;SDS011;12844;52.110;5.548;2023-05-02T14:00:43;2.55;;;1.55;;
24743;SDS011;12844;52.110;5.548;2023-05-02T14:03:09;4.82;;;1.65;;
24743;SDS011;12844;52.110;5.548;2023-05-02T14:05:35;4.55;;;1.67;;
24743;SDS011;12844;52.110;5.548;2023-05-02T14:08:00;3.00;;;1.70;;
24743;SDS011;12844;52.110;5.548;2023-05-02T14:10:26;5.00;;;1.60;;
24743;SDS011;12844;52.110;5.548;2023-05-02T14:12:51;3.03;;;1.60;;
24743;SDS011;12844;52.110;5.548;2023-05-02T14:15:17;2.20;;;1.65;;
24743;SDS011;12844;52.110;5.548;2023-05-02T14:17:43;6.50;;;2.30;;
24743;SDS011;12844;52.110;5.548;2023-05-02T14:20:08;2.67;;;1.45;;
24743;SDS011;12844;52.110;5.548;2023-05-02T14:22:35;5.05;;;1.75;;
24743;SDS011;12844;52.110;5.548;2023-05-02T14:25:00;3.83;;;1.80;;
24743;SDS011;12844;52.110;5.548;2023-05-02T14:27:25;3.65;;;2.10;;
24743;SDS011;12844;52.110;5.548;2023-05-02T14:29:51;2.65;;;1.60;;
24743;SDS011;12844;52.110;5.548;2023-05-02T14:32:17;4.35;;;1.92;;
24743;SDS011;12844;52.110;5.548;2023-05-02T14:34:42;3.53;;;1.70;;
24743;SDS011;12844;52.110;5.548;2023-05-02T14:37:08;3.22;;;2.17;;
24743;SDS011;12844;52.110;5.548;2023-05-02T14:39:34;4.03;;;1.73;;
24743;SDS011;12844;52.110;5.548;2023-05-02T14:42:00;2.42;;;1.70;;
24743;SDS011;12844;52.110;5.548;2023-05-02T14:44:28;3.50;;;1.90;;
24743;SDS011;12844;52.110;5.548;2023-05-02T14:46:54;3.72;;;2.03;;
24743;SDS011;12844;52.110;5.548;2023-05-02T14:49:20;3.33;;;1.88;;
24743;SDS011;12844;52.110;5.548;2023-05-02T14:51:46;3.00;;;1.98;;
24743;SDS011;12844;52.110;5.548;2023-05-02T14:54:12;3.58;;;2.00;;
24743;SDS011;12844;52.110;5.548;2023-05-02T14:56:40;3.80;;;2.33;;
24743;SDS011;12844;52.110;5.548;2023-05-02T14:59:06;2.80;;;1.83;;
24743;SDS011;12844;52.110;5.548;2023-05-02T15:01:32;3.72;;;1.70;;
24743;SDS011;12844;52.110;5.548;2023-05-02T15:03:57;6.03;;;2.10;;
24743;SDS011;12844;52.110;5.548;2023-05-02T15:06:23;3.50;;;1.77;;
24743;SDS011;12844;52.110;5.548;2023-05-02T15:08:48;5.93;;;2.00;;
24743;SDS011;12844;52.110;5.548;2023-05-02T15:11:14;2.75;;;1.80;;
24743;SDS011;12844;52.110;5.548;2023-05-02T15:13:40;3.20;;;1.70;;
24743;SDS011;12844;52.110;5.548;2023-05-02T15:16:06;3.00;;;1.60;;
24743;SDS011;12844;52.110;5.548;2023-05-02T15:18:33;3.80;;;1.90;;
24743;SDS011;12844;52.110;5.548;2023-05-02T15:20:59;4.95;;;1.90;;
24743;SDS011;12844;52.110;5.548;2023-05-02T15:23:25;3.58;;;1.88;;
24743;SDS011;12844;52.110;5.548;2023-05-02T15:25:50;3.47;;;1.80;;
24743;SDS011;12844;52.110;5.548;2023-05-02T15:28:16;3.60;;;2.10;;